Iretama, Brazil
Current Conditions -  °F | °C
As of 8:00 PM on Sunday 23 Nov 2014 (Local Time) from SBMG Reporting Station
Few Clouds Few Clouds  
Wind Chill: 81°   Ceiling: Unl
Heat Index: 83°   Visibility: 6mi
Dew Point: 68°   Wind: 3mph
Humidity: 65%   Direction: 360°N
Pressure: 29.85"   Gusts: NA
Location:  24.42°S, 52.1°W
Report Text: SBMG 232200Z 36003KT 9999 FEW035 FEW045TCU 27/20 Q1011
Loading
Personal Weather Stations






























Interactive Weather Map New forecast layout! Learn more

10-Day Weather Forecast

Advertisements
Track Severe Weather on mobile